VEBN Airport Information

Runway Information
Airport Frequencies
Airport Navaids
Airport Weather Information & NOTAM
ADDS - METARS form results

(1201 UTC 26 October 2020)
Data provider http://aviationweather.gov/metar/data/
 
METAR text: VEBN 261130Z 29003KT 3500 HZ NSC 30/17 Q1008 NOSIG
Conditions at: VEBN (VARANASI , IN) observed 1130 UTC 26 October 2020
Temperature: 30.0°C (86°F)
Dewpoint: 17.0°C (63°F) [RH = 46%]
Pressure (altimeter): 29.76 inches Hg (1008.0 mb)
Winds: from the WNW (290 degrees) at 3 MPH (3 knots; 1.5 m/s)
Visibility: 2.17 miles (3.49 km)
Ceiling: at least 12,000 feet AGL
Clouds: sky clear below 12,000 feet AGL
Weather: HZ  (haze)

Forecast for: VEBN (VARANASI , IN)
Text: TAF VEBN 261100Z 2612/2621 32009KT 4000 HZ NSC
Forecast period: 1200 to 1800 UTC 26 October 2020
Forecast type: FROM: standard forecast or significant change
Winds: from the NW (320 degrees) at 10 MPH (9 knots; 4.6 m/s)
Visibility: 2.49 miles (4.01 km)
Ceiling: unknown
Clouds: missing
Weather: HZ  (haze)
Text: BECMG 2618/2620 VRB02KT 2500 BR
Forecast period: 1800 to 2100 UTC 26 October 2020
Forecast type: BECOMING: Conditions expected to become as follows by 2000 UTC 26 October 2020
Winds: variable direction winds at 2 MPH (2 knots; 1.0 m/s)
Visibility: 1.55 miles (2.49 km)
Ceiling: unknown
Clouds: missing
Weather: BR  (mist)